Flight Track Log - Related Links

Times and Time Zones

All times are in EDT time to prevent confusion due to time zone crossing. See the N615DL flight status page for this flight to view local times or setup timezone preferences in your user account.

Time Position Orientation Groundspeed Altitude Reporting Facility
EDT Latitude Longitude Course Direction KTS MPH feet Rate Location/Type
Mon 11:08:48 AM 27.9667 -82.5500 192° South 165 190 900  Level Tampa TRACON
Mon 11:10:00 AM 27.9000 -82.5667 281° West 222 255 3,500 2,623 Climbing Tampa TRACON
Mon 11:11:51 AM 27.9161 -82.6625 346° North 237 273 8,900 2,596 Climbing Jacksonville Center
Mon 11:12:51 AM 28.0017 -82.6858 347° North 228 262 10,900 2,150 Climbing Jacksonville Center
Mon 11:13:51 AM 28.0997 -82.7114 348° North 316 364 13,200 2,300 Climbing Jacksonville Center
Mon 11:14:51 AM 28.2061 -82.7372 348° North 348 400 15,500 2,400 Climbing Jacksonville Center
Mon 11:15:51 AM 28.3211 -82.7653 349° North 372 428 18,000 2,250 Climbing Jacksonville Center
Mon 11:16:51 AM 28.4358 -82.7911 352° North 393 452 20,000 1,900 Climbing Jacksonville Center
Mon 11:17:51 AM 28.5547 -82.8100 349° North 414 476 21,800 1,750 Climbing Jacksonville Center
Mon 11:18:51 AM 28.6758 -82.8358 345° North 433 498 23,500 1,750 Climbing Jacksonville Center
Mon 11:19:51 AM 28.7864 -82.8689 333° Northwest 443 510 25,300 2,150 Climbing Jacksonville Center
Mon 11:20:51 AM 28.8908 -82.9306 332° Northwest 436 502 27,800 1,800 Climbing Jacksonville Center
Mon 11:21:51 AM 29.0056 -83.0017 331° Northwest 431 496 28,900 1,100 Climbing Jacksonville Center
Mon 11:22:51 AM 29.1161 -83.0708 331° Northwest 441 507 30,000 1,050 Climbing Jacksonville Center
Mon 11:23:51 AM 29.2286 -83.1425 332° Northwest 446 513 31,000 1,000 Climbing Jacksonville Center
Mon 11:24:51 AM 29.3433 -83.2119 331° Northwest 452 520 32,000 700 Climbing Jacksonville Center
Mon 11:25:51 AM 29.4558 -83.2836 332° Northwest 458 527 32,400 950 Climbing Jacksonville Center
Mon 11:26:51 AM 29.5706 -83.3533 331° Northwest 463 533 33,900 800 Climbing Jacksonville Center
Mon 11:27:51 AM 29.6850 -83.4256 332° Northwest 463 533 34,000 50 Climbing Jacksonville Center
Mon 11:28:51 AM 29.7975 -83.4933 332° Northwest 457 526 34,000  Level Jacksonville Center
Mon 11:29:51 AM 29.9097 -83.5636 332° Northwest 457 526 34,000  Level Jacksonville Center
Mon 11:30:51 AM 30.0222 -83.6339 332° Northwest 457 526 34,000  Level Jacksonville Center
Mon 11:31:51 AM 30.1325 -83.7019 333° Northwest 457 526 34,000  Level Jacksonville Center
Mon 11:32:51 AM 30.2447 -83.7678 330° Northwest 457 526 34,000  Level Jacksonville Center
Mon 11:33:51 AM 30.3547 -83.8411 332° Northwest 457 526 34,000  Level Jacksonville Center
Mon 11:34:51 AM 30.4650 -83.9097 333° Northwest 457 526 34,000  Level Jacksonville Center
Mon 11:35:51 AM 30.5625 -83.9686 331° Northwest 449 517 34,000  Level Jacksonville Center
Mon 11:36:51 AM 30.6686 -84.0375 332° Northwest 442 509 34,000  Level Jacksonville Center
Mon 11:37:51 AM 30.7786 -84.1064 331° Northwest 442 509 34,000  Level Jacksonville Center
Mon 11:38:51 AM 30.8864 -84.1756 331° Northwest 442 509 34,000  Level Jacksonville Center
Mon 11:39:51 AM 30.9942 -84.2450 331° Northwest 442 509 34,000  Level Jacksonville Center
Mon 11:40:51 AM 31.1042 -84.3169 331° Northwest 437 503 34,000  Level Jacksonville Center
Mon 11:43:28 AM 31.3889 -84.5011 332° Northwest 433 498 34,000  Level Atlanta Center
Mon 11:44:28 AM 31.4992 -84.5697 331° Northwest 438 504 34,000 -500 Level Atlanta Center
Mon 11:45:28 AM 31.6094 -84.6411 340° North 438 504 33,000 -1,150 Descending Atlanta Center
Mon 11:46:28 AM 31.7322 -84.6933 349° North 448 516 31,700 -1,300 Descending Atlanta Center
Mon 11:47:28 AM 31.8594 -84.7211 348° North 463 533 30,400 -1,350 Descending Atlanta Center
Mon 11:48:28 AM 31.9908 -84.7539 349° North 463 533 29,000 -1,500 Descending Atlanta Center
Mon 11:49:28 AM 32.1200 -84.7844 350° North 468 539 27,400 -1,450 Descending Atlanta Center
Mon 11:50:28 AM 32.2494 -84.8125 351° North 473 544 26,100 -1,250 Descending Atlanta Center
Mon 11:51:28 AM 32.3806 -84.8381 348° North 468 539 24,900 -1,100 Descending Atlanta Center
Mon 11:52:28 AM 32.5078 -84.8689 349° North 468 539 23,900 -1,100 Descending Atlanta Center
Mon 11:53:28 AM 32.6328 -84.8972 349° North 468 539 22,700 -1,050 Descending Atlanta Center
Mon 11:54:28 AM 32.7494 -84.9231 346° North 444 511 21,800 -950 Descending Atlanta Center
Mon 11:55:28 AM 32.8558 -84.9539 348° North 436 502 20,800 -2,067 Descending Atlanta Center
Mon 11:57:28 AM 33.1000 -85.0167 North 412 474 15,600 -2,310 Descending Atlanta TRACON
Mon 11:58:22 AM 33.2000 -85.0000 45° Northeast 404 465 14,100 -1,200 Descending Atlanta TRACON
Mon 11:59:28 AM 33.2883 -84.8936 49° Northeast 375 432 13,200 -857 Descending Atlanta Center
Mon 12:00:28 PM 33.3619 -84.7925 49° Northeast 380 437 12,300 -595 Descending Atlanta Center
Mon 12:01:29 PM 33.4292 -84.7008 47° Northeast 378 435 12,000 -150 Descending Atlanta Center
Mon 12:02:28 PM 33.4881 -84.6242 49° Northeast 333 383 12,000 -454 Level Atlanta Center
Mon 12:03:28 PM 33.5364 -84.5572 85° East 277 319 11,100 -1,100 Descending Atlanta Center
Mon 12:04:28 PM 33.5431 -84.4700 88° East 243 280 9,800 -1,525 Descending Atlanta Center
Mon 12:07:28 PM 33.5500 -84.2167 90° East 240 276 5,000 -1,475 Descending Atlanta TRACON
Mon 12:08:28 PM 33.5500 -84.1333 16° North 229 264 3,900 -750 Descending Atlanta TRACON
Mon 12:09:28 PM 33.6000 -84.1167 301° West 229 264 3,500 -200 Descending Atlanta TRACON
Mon 12:10:28 PM 33.6333 -84.1833 270° West 215 247 3,500  Level Atlanta TRACON
Mon 12:11:28 PM 33.6333 -84.2500 270° West 216 249 3,500 -400 Level Atlanta TRACON
Mon 12:12:28 PM 33.6333 -84.3167 270° West 187 215 2,700 -800 Descending Atlanta TRACON
Mon 12:13:28 PM 33.6333 -84.3667 270° West 146 168 1,900 -800 Descending Atlanta TRACON
Mon 12:20:32 PM 33.6333 -84.4167 290° West  Level FlightAware Approximate
Mon 12:21:32 PM 33.6696 -84.5387 110° East  Level Estimated
Mon 12:22:32 PM 33.6333 -84.4167 110° East  Level FlightAware Approximate

Login

Don't have an account? Register now (free) for customized features, flight alerts, and more!